createdAt,value
2023-02-02T00:00:59.000Z,54.7
2023-02-02T00:02:16.199Z,52.5
2023-02-02T00:03:33.304Z,54.3
2023-02-02T00:04:50.409Z,52
2023-02-02T00:06:07.514Z,56.5
2023-02-02T00:07:24.619Z,51
2023-02-02T00:08:41.724Z,65.7
2023-02-02T00:09:58.829Z,49.6
2023-02-02T00:11:15.934Z,49.4
2023-02-02T00:12:33.039Z,48.5
2023-02-02T00:13:49.160Z,47.2
2023-02-02T00:15:06.265Z,48.9
2023-02-02T00:16:23.370Z,49.4
2023-02-02T00:17:40.475Z,48.9
2023-02-02T00:18:57.581Z,48.1
2023-02-02T00:20:14.686Z,47.8
2023-02-02T00:21:31.789Z,48.1
2023-02-02T00:22:47.915Z,48.1
2023-02-02T00:24:04.037Z,49.7
2023-02-02T00:25:21.142Z,47
2023-02-02T00:26:38.247Z,48.1
2023-02-02T00:27:55.352Z,47
2023-02-02T00:29:11.478Z,46.7
2023-02-02T00:30:27.599Z,47.2
2023-02-02T00:31:44.704Z,52.5
2023-02-02T00:33:01.809Z,49.1
2023-02-02T00:34:18.916Z,48.3
2023-02-02T00:35:36.021Z,48.5
2023-02-02T00:36:53.126Z,47.8
2023-02-02T00:38:10.231Z,48
2023-02-02T00:39:27.336Z,66.8
2023-02-02T00:40:44.441Z,47.6
2023-02-02T00:42:01.546Z,48.1
2023-02-02T00:43:18.651Z,46.8
2023-02-02T00:44:35.756Z,47.3
2023-02-02T00:45:52.861Z,48.5
2023-02-02T00:47:08.982Z,48.1
2023-02-02T00:48:26.088Z,51.5
2023-02-02T00:49:43.193Z,48.1
2023-02-02T00:51:00.297Z,46.7
2023-02-02T00:52:17.402Z,46.7
2023-02-02T00:53:34.508Z,48.1
2023-02-02T00:54:51.613Z,47.2
2023-02-02T00:56:08.718Z,47.2
2023-02-02T00:57:24.844Z,49.3
2023-02-02T00:58:40.965Z,48.5
2023-02-02T00:59:58.071Z,48.9
2023-02-02T01:01:14.197Z,48.5
2023-02-02T01:02:30.319Z,48.8
2023-02-02T01:03:47.424Z,56
2023-02-02T01:05:04.529Z,49.9
2023-02-02T01:06:21.634Z,50.4
2023-02-02T01:07:38.739Z,49.9
2023-02-02T01:08:55.844Z,49.4
2023-02-02T01:10:12.949Z,51
2023-02-02T01:11:30.054Z,49.7
2023-02-02T01:12:47.159Z,58.4
2023-02-02T01:14:04.264Z,49.7
2023-02-02T01:15:21.369Z,49.3
2023-02-02T01:16:38.474Z,49.7
2023-02-02T01:17:55.579Z,50.4
2023-02-02T01:19:11.700Z,75.4
2023-02-02T01:20:28.805Z,47.6
2023-02-02T01:21:45.910Z,48
2023-02-02T01:23:03.015Z,48
2023-02-02T01:24:20.120Z,49.7
2023-02-02T01:25:37.225Z,48.6
2023-02-02T01:26:54.330Z,57.5
2023-02-02T01:28:11.435Z,48
2023-02-02T01:29:28.540Z,48.9
2023-02-02T01:30:45.645Z,48.9
2023-02-02T01:32:02.749Z,48.5
2023-02-02T01:33:19.854Z,72.5
2023-02-02T01:34:36.959Z,52.5
2023-02-02T01:35:53.080Z,66.7
2023-02-02T01:37:10.186Z,51.2
2023-02-02T01:38:26.307Z,51.8
2023-02-02T01:39:42.433Z,53.1
2023-02-02T01:40:58.554Z,49.7
2023-02-02T01:42:15.659Z,65.9
2023-02-02T01:43:32.764Z,49.3
2023-02-02T01:44:48.890Z,57.2
2023-02-02T01:46:05.011Z,48.8
2023-02-02T01:47:22.116Z,48.3
2023-02-02T01:48:39.221Z,60.4
2023-02-02T01:49:56.326Z,51.8
2023-02-02T01:51:13.431Z,49.7
2023-02-02T01:52:30.535Z,51
2023-02-02T01:53:47.641Z,48.9
2023-02-02T01:55:04.746Z,48.5
2023-02-02T01:56:21.851Z,47.6
2023-02-02T01:57:38.955Z,47.6
2023-02-02T01:58:56.060Z,47.5
2023-02-02T02:00:13.165Z,49.4
2023-02-02T02:01:30.270Z,49.1
2023-02-02T02:02:46.391Z,49.1
2023-02-02T02:04:03.496Z,64.9
2023-02-02T02:05:20.601Z,48.8
2023-02-02T02:06:37.706Z,47.8
2023-02-02T02:07:54.811Z,53.1
2023-02-02T02:09:11.916Z,47.5
2023-02-02T02:10:29.021Z,48.3
2023-02-02T02:11:46.126Z,50.2
2023-02-02T02:13:03.230Z,48.9
2023-02-02T02:14:20.335Z,64.4
2023-02-02T02:15:37.440Z,51
2023-02-02T02:16:54.545Z,52.6
2023-02-02T02:18:10.672Z,51.8
2023-02-02T02:19:26.793Z,51.2
2023-02-02T02:20:43.898Z,48.3
2023-02-02T02:22:01.003Z,48.3
2023-02-02T02:23:18.107Z,48.3
2023-02-02T02:24:34.234Z,47.6
2023-02-02T02:25:50.355Z,48.3
2023-02-02T02:27:07.460Z,49.4
2023-02-02T02:28:24.564Z,48.5
2023-02-02T02:29:41.667Z,47.6
2023-02-02T02:30:58.772Z,47.3
2023-02-02T02:32:15.877Z,48.5
2023-02-02T02:33:32.982Z,47.8
2023-02-02T02:34:50.087Z,48.3
2023-02-02T02:36:07.192Z,47.5
2023-02-02T02:37:24.296Z,49.9
2023-02-02T02:38:41.401Z,47.8
2023-02-02T02:39:58.506Z,46.5
2023-02-02T02:41:15.611Z,49.4
2023-02-02T02:42:31.732Z,47.3
2023-02-02T02:43:48.837Z,62.5
2023-02-02T02:45:05.942Z,49.4
2023-02-02T02:46:23.047Z,51.5
2023-02-02T02:47:40.152Z,47.6
2023-02-02T02:48:57.257Z,64.4
2023-02-02T02:50:14.362Z,48.6
2023-02-02T02:51:30.488Z,49.1
2023-02-02T02:52:46.609Z,69.7
2023-02-02T02:54:02.735Z,50.1
2023-02-02T02:55:18.856Z,50.5
2023-02-02T02:56:35.961Z,66.2
2023-02-02T02:57:53.066Z,48.8
2023-02-02T02:59:10.171Z,60.9
2023-02-02T03:00:27.276Z,55.1
2023-02-02T03:01:44.381Z,49.3
2023-02-02T03:03:01.486Z,48.5
2023-02-02T03:04:18.591Z,49.7
2023-02-02T03:05:35.696Z,67.1
2023-02-02T03:06:52.801Z,48.5
2023-02-02T03:08:09.906Z,51
2023-02-02T03:09:27.011Z,71.3
2023-02-02T03:10:44.116Z,56.7
2023-02-02T03:12:00.237Z,48.1
2023-02-02T03:13:17.341Z,47.2
2023-02-02T03:14:34.446Z,63.6
2023-02-02T03:15:51.551Z,48.5
2023-02-02T03:17:08.656Z,48.9
2023-02-02T03:18:25.761Z,70.7
2023-02-02T03:19:42.866Z,48.5
2023-02-02T03:20:58.992Z,47.8
2023-02-02T03:22:15.113Z,68.4
2023-02-02T03:23:31.239Z,47.5
2023-02-02T03:24:47.360Z,45.6
2023-02-02T03:26:04.465Z,64.4
2023-02-02T03:27:21.570Z,60.2
2023-02-02T03:28:38.675Z,67.9
2023-02-02T03:29:55.780Z,50.7
2023-02-02T03:31:12.885Z,48.6
2023-02-02T03:32:29.990Z,61.7
2023-02-02T03:33:47.095Z,60.5
2023-02-02T03:35:04.200Z,66.3
2023-02-02T03:36:21.305Z,62.5
2023-02-02T03:37:38.410Z,49.4
2023-02-02T03:38:55.515Z,49.9
2023-02-02T03:40:12.619Z,65.2
2023-02-02T03:41:28.740Z,64.4
2023-02-02T03:42:45.845Z,63
2023-02-02T03:44:02.950Z,51
2023-02-02T03:45:20.055Z,63.9
2023-02-02T03:46:37.160Z,66
2023-02-02T03:47:54.265Z,56
2023-02-02T03:49:11.370Z,51.7
2023-02-02T03:50:28.475Z,49.7
2023-02-02T03:51:45.580Z,50.7
2023-02-02T03:53:02.684Z,55.1
2023-02-02T03:54:19.789Z,49.6
2023-02-02T03:55:36.894Z,61.7
2023-02-02T03:56:53.999Z,59.9
2023-02-02T03:58:10.120Z,62.1
2023-02-02T03:59:27.225Z,58.1
2023-02-02T04:00:44.330Z,59.2
2023-02-02T04:02:01.435Z,60.2
2023-02-02T04:03:18.540Z,67.3
2023-02-02T04:04:35.644Z,50.9
2023-02-02T04:05:51.771Z,56.7
2023-02-02T04:07:07.891Z,50.9
2023-02-02T04:08:24.996Z,51.8
2023-02-02T04:09:41.123Z,53
2023-02-02T04:10:57.244Z,61.5
2023-02-02T04:12:14.348Z,67
2023-02-02T04:13:31.454Z,66.5
2023-02-02T04:14:48.558Z,59.9
2023-02-02T04:16:05.663Z,57.6
2023-02-02T04:17:22.768Z,68.3
2023-02-02T04:18:39.873Z,70.7
2023-02-02T04:19:56.978Z,64.4
2023-02-02T04:21:14.083Z,67.9
2023-02-02T04:22:31.188Z,62.8
2023-02-02T04:23:48.293Z,67.9
2023-02-02T04:25:05.398Z,64.4
2023-02-02T04:26:22.502Z,66.2
2023-02-02T04:27:38.623Z,72.5
2023-02-02T04:28:55.728Z,71.5
2023-02-02T04:30:12.833Z,67.5
2023-02-02T04:31:29.938Z,63.9
2023-02-02T04:32:47.043Z,64.1
2023-02-02T04:34:04.147Z,68.6
2023-02-02T04:35:21.253Z,68.9
2023-02-02T04:36:37.379Z,68.6
2023-02-02T04:37:53.500Z,69.9
2023-02-02T04:39:10.605Z,64.9
2023-02-02T04:40:27.710Z,60.4
2023-02-02T04:41:43.836Z,59.2
2023-02-02T04:42:59.957Z,51.4
2023-02-02T04:44:17.062Z,67.9
2023-02-02T04:45:34.166Z,65.7
2023-02-02T04:46:51.271Z,58.3
2023-02-02T04:48:08.376Z,52.6
2023-02-02T04:49:25.481Z,68.1
2023-02-02T04:50:42.586Z,64.1
2023-02-02T04:51:59.691Z,63.3
2023-02-02T04:53:16.797Z,58.1
2023-02-02T04:54:33.901Z,62.1
2023-02-02T04:55:51.006Z,67.6
2023-02-02T04:57:08.111Z,63.8
2023-02-02T04:58:25.216Z,61.3
2023-02-02T04:59:41.337Z,63.1
2023-02-02T05:00:58.442Z,78.7
2023-02-02T05:02:15.547Z,66.2
2023-02-02T05:03:32.652Z,63.8
2023-02-02T05:04:49.757Z,64.9
2023-02-02T05:06:06.861Z,70.4
2023-02-02T05:07:23.966Z,68.3
2023-02-02T05:08:40.092Z,66.5
2023-02-02T05:09:56.213Z,63.8
2023-02-02T05:11:12.339Z,61.7
2023-02-02T05:12:28.460Z,61.8
2023-02-02T05:13:45.565Z,54.7
2023-02-02T05:15:02.670Z,68.4
2023-02-02T05:16:19.775Z,63.8
2023-02-02T05:17:36.880Z,73.7
2023-02-02T05:18:53.985Z,65
2023-02-02T05:20:11.090Z,68.9
2023-02-02T05:21:28.195Z,63
2023-02-02T05:22:45.299Z,67
2023-02-02T05:24:02.404Z,58.3
2023-02-02T05:25:19.509Z,64.6
2023-02-02T05:26:36.614Z,68.6
2023-02-02T05:27:53.719Z,65.2
2023-02-02T05:29:09.840Z,67.5
2023-02-02T05:30:26.945Z,70.2
2023-02-02T05:31:44.049Z,65
2023-02-02T05:33:01.154Z,66
2023-02-02T05:34:18.259Z,64.9
2023-02-02T05:35:35.364Z,59.7
2023-02-02T05:36:52.469Z,70
2023-02-02T05:38:08.595Z,72.5
2023-02-02T05:39:24.716Z,63.3
2023-02-02T05:40:41.820Z,62.6
2023-02-02T05:41:57.947Z,71.8
2023-02-02T05:43:14.068Z,64.9
2023-02-02T05:44:31.173Z,72.1
2023-02-02T05:45:48.277Z,71.5
2023-02-02T05:47:05.382Z,67.3
2023-02-02T05:48:22.487Z,65.7
2023-02-02T05:49:39.592Z,72.8
2023-02-02T05:50:56.697Z,68.8
2023-02-02T05:52:13.802Z,71.3
2023-02-02T05:53:30.906Z,61.3
2023-02-02T05:54:48.012Z,62.3
2023-02-02T05:56:04.133Z,60.7
2023-02-02T05:57:21.237Z,70.2
2023-02-02T05:58:38.342Z,58
2023-02-02T05:59:55.447Z,70.8
2023-02-02T06:01:12.552Z,72.1
2023-02-02T06:02:29.657Z,82.1
2023-02-02T06:03:46.761Z,69.4
2023-02-02T06:05:03.866Z,69.2
2023-02-02T06:06:20.972Z,72
2023-02-02T06:07:38.076Z,70.7
2023-02-02T06:08:54.203Z,63.8
2023-02-02T06:10:10.324Z,67.3
2023-02-02T06:11:27.429Z,61.8
2023-02-02T06:12:44.533Z,68.9
2023-02-02T06:14:00.660Z,72.5
2023-02-02T06:15:16.781Z,74.2
2023-02-02T06:16:33.885Z,69.9
2023-02-02T06:17:50.990Z,69.4
2023-02-02T06:19:08.095Z,69.7
2023-02-02T06:20:25.200Z,68.4
2023-02-02T06:21:42.305Z,68.6
2023-02-02T06:22:59.410Z,67.5
2023-02-02T06:24:16.515Z,72.1
2023-02-02T06:25:33.620Z,69.1
2023-02-02T06:26:50.724Z,70.4
2023-02-02T06:28:07.829Z,61
2023-02-02T06:29:24.934Z,71
2023-02-02T06:31:59.144Z,65.2
2023-02-02T06:33:15.265Z,80.5
2023-02-02T06:34:32.370Z,68.4
2023-02-02T06:35:49.475Z,68.9
2023-02-02T06:37:06.580Z,70.8
2023-02-02T06:38:23.685Z,65.7
2023-02-02T06:39:40.789Z,68.8
2023-02-02T06:40:57.895Z,74.2
2023-02-02T06:42:14.021Z,68.9
2023-02-02T06:43:30.142Z,67.3
2023-02-02T06:44:46.269Z,67.9
2023-02-02T06:46:02.389Z,76.8
2023-02-02T06:47:19.494Z,80.8
2023-02-02T06:48:36.599Z,81.3
2023-02-02T06:49:53.704Z,87.8
2023-02-02T06:51:10.809Z,68.3
2023-02-02T06:52:27.914Z,70.7
2023-02-02T06:53:45.019Z,68.1
2023-02-02T06:55:02.124Z,69.7
2023-02-02T06:56:19.228Z,67.9
2023-02-02T06:57:36.333Z,70.4
2023-02-02T06:58:53.438Z,69.1
2023-02-02T07:00:10.543Z,67.9
2023-02-02T07:01:27.648Z,72.5
2023-02-02T07:02:43.769Z,66.8
2023-02-02T07:04:00.874Z,67.5
2023-02-02T07:05:17.979Z,65.2
2023-02-02T07:06:35.084Z,66.5
2023-02-02T07:07:52.189Z,76.6
2023-02-02T07:09:09.293Z,70.7
2023-02-02T07:10:26.399Z,70.4
2023-02-02T07:11:43.504Z,70.4
2023-02-02T07:13:00.608Z,67.1
2023-02-02T07:14:17.713Z,74.1
2023-02-02T07:15:34.818Z,68.9
2023-02-02T07:16:51.923Z,60.9
2023-02-02T07:18:09.028Z,70.8
2023-02-02T07:19:25.149Z,66.2
2023-02-02T07:20:42.254Z,66.7
2023-02-02T07:21:58.378Z,69.7
2023-02-02T07:23:14.499Z,60.9
2023-02-02T07:24:30.625Z,67.9
2023-02-02T07:25:46.746Z,76.6
2023-02-02T07:27:03.851Z,68.6
2023-02-02T07:28:20.956Z,67.1
2023-02-02T07:29:38.061Z,69.7
2023-02-02T07:30:55.166Z,67.8
2023-02-02T07:32:12.270Z,63.9
2023-02-02T07:33:29.375Z,70
2023-02-02T07:34:46.480Z,58.6
2023-02-02T07:36:03.585Z,64.9
2023-02-02T07:37:20.690Z,66.5
2023-02-02T07:38:37.795Z,62.5
2023-02-02T07:39:54.900Z,64.4
2023-02-02T07:41:12.004Z,66.2
2023-02-02T07:42:28.125Z,65.7
2023-02-02T07:43:45.230Z,66.3
2023-02-02T07:45:02.335Z,70.2
2023-02-02T07:46:19.440Z,63.8
2023-02-02T07:47:36.545Z,68.8
2023-02-02T07:48:53.650Z,66.3
2023-02-02T07:50:10.754Z,66.2
2023-02-02T07:51:26.881Z,69.7
2023-02-02T07:52:43.002Z,72.3
2023-02-02T07:53:59.128Z,67.9
2023-02-02T07:55:15.249Z,68.3
2023-02-02T07:56:32.353Z,70
2023-02-02T07:57:49.458Z,66.7
2023-02-02T07:59:06.563Z,67.1
2023-02-02T08:00:23.668Z,71.8
2023-02-02T08:01:40.773Z,66.2
2023-02-02T08:02:57.877Z,65.9
2023-02-02T08:04:14.983Z,68.4
2023-02-02T08:05:32.088Z,67.9
2023-02-02T08:06:49.193Z,64.7
2023-02-02T08:08:06.298Z,68.8
2023-02-02T08:09:23.403Z,63
2023-02-02T08:10:40.508Z,65.7
2023-02-02T08:11:56.629Z,62.8
2023-02-02T08:13:13.734Z,65.9
2023-02-02T08:14:30.838Z,68.9
2023-02-02T08:15:47.944Z,63.3
2023-02-02T08:17:05.048Z,69.2
2023-02-02T08:18:22.153Z,67.8
2023-02-02T08:19:39.258Z,67
2023-02-02T08:20:56.363Z,60.2
2023-02-02T08:22:13.468Z,70
2023-02-02T08:23:30.573Z,72.8
2023-02-02T08:24:47.677Z,67.9
2023-02-02T08:26:04.783Z,63.1
2023-02-02T08:27:21.887Z,63.6
2023-02-02T08:28:38.014Z,69.6
2023-02-02T08:29:55.118Z,60.4
2023-02-02T08:31:11.245Z,58.8
2023-02-02T08:32:27.366Z,69.4
2023-02-02T08:33:44.470Z,68.9
2023-02-02T08:35:01.575Z,71
2023-02-02T08:36:18.680Z,67.5
2023-02-02T08:37:35.785Z,68.9
2023-02-02T08:38:52.890Z,71.3
2023-02-02T08:40:09.995Z,64.1
2023-02-02T08:41:27.100Z,66.3
2023-02-02T08:42:44.204Z,68.6
2023-02-02T08:44:01.309Z,67.3
2023-02-02T08:45:18.414Z,68.1
2023-02-02T08:46:35.519Z,68.6
2023-02-02T08:47:52.624Z,68.4
2023-02-02T08:49:08.745Z,62.6
2023-02-02T08:50:25.850Z,71
2023-02-02T08:51:42.955Z,64.9
2023-02-02T08:53:00.059Z,66.5
2023-02-02T08:54:17.164Z,69.4
2023-02-02T08:55:34.269Z,62.8
2023-02-02T08:56:51.374Z,68.9
2023-02-02T08:58:08.479Z,63.8
2023-02-02T08:59:25.583Z,65.2
2023-02-02T09:00:42.688Z,66.2
2023-02-02T09:01:59.793Z,67.3
2023-02-02T09:03:16.898Z,67
2023-02-02T09:04:33.024Z,71.2
2023-02-02T09:05:49.145Z,65
2023-02-02T09:07:05.271Z,67.5
2023-02-02T09:08:21.392Z,67.6
2023-02-02T09:09:38.497Z,69.4
2023-02-02T09:10:55.602Z,74.4
2023-02-02T09:12:12.707Z,70.2
2023-02-02T09:13:29.811Z,68.6
2023-02-02T09:14:46.916Z,70
2023-02-02T09:16:04.021Z,63
2023-02-02T09:17:21.126Z,69.1
2023-02-02T09:18:38.231Z,63.9
2023-02-02T09:19:55.336Z,75.7
2023-02-02T09:21:12.441Z,70
2023-02-02T09:22:29.545Z,71.3
2023-02-02T09:23:46.650Z,64.9
2023-02-02T09:25:02.771Z,66.2
2023-02-02T09:26:19.876Z,64.7
2023-02-02T09:27:36.981Z,64.9
2023-02-02T09:28:54.086Z,69.1
2023-02-02T09:30:11.190Z,66.5
2023-02-02T09:31:28.295Z,70.4
2023-02-02T09:32:45.400Z,68.3
2023-02-02T09:34:02.506Z,63.4
2023-02-02T09:35:19.610Z,69.4
2023-02-02T09:36:36.715Z,66.2
2023-02-02T09:37:53.820Z,65
2023-02-02T09:39:10.925Z,60.2
2023-02-02T09:40:28.030Z,68.8
2023-02-02T09:41:44.151Z,62.5
2023-02-02T09:43:01.255Z,60.2
2023-02-02T09:44:18.360Z,63.8
2023-02-02T09:45:35.465Z,70
2023-02-02T09:46:52.570Z,71.3
2023-02-02T09:48:09.675Z,67.5
2023-02-02T09:49:26.779Z,72
2023-02-02T09:50:43.884Z,64.6
2023-02-02T09:52:00.010Z,65.4
2023-02-02T09:53:16.131Z,69.4
2023-02-02T09:54:33.236Z,66.2
2023-02-02T09:55:49.362Z,69.6
2023-02-02T09:57:05.483Z,67.5
2023-02-02T09:59:39.692Z,70.5
2023-02-02T10:00:56.797Z,67.6
2023-02-02T10:02:13.902Z,67
2023-02-02T10:03:31.007Z,68.9
2023-02-02T10:04:48.111Z,68.1
2023-02-02T10:06:05.216Z,68.9
2023-02-02T10:07:22.321Z,64.9
2023-02-02T10:08:39.426Z,57.2
2023-02-02T10:09:56.531Z,69.4
2023-02-02T10:11:13.635Z,68.6
2023-02-02T10:12:30.740Z,72.8
2023-02-02T10:13:46.861Z,66.3
2023-02-02T10:15:03.966Z,64.2
2023-02-02T10:16:21.070Z,61.5
2023-02-02T10:17:38.176Z,69.7
2023-02-02T10:18:55.280Z,66.7
2023-02-02T10:20:12.385Z,70.7
2023-02-02T10:21:29.490Z,72.5
2023-02-02T10:22:46.594Z,66.2
2023-02-02T10:24:02.720Z,70.7
2023-02-02T10:25:18.841Z,67.5
2023-02-02T10:26:34.967Z,63.3
2023-02-02T10:27:51.088Z,70.5
2023-02-02T10:29:08.193Z,69.4
2023-02-02T10:30:25.298Z,65.2
2023-02-02T10:31:42.402Z,65.5
2023-02-02T10:32:59.507Z,59.4
2023-02-02T10:34:16.612Z,69.1
2023-02-02T10:35:33.717Z,62
2023-02-02T10:36:50.821Z,72.1
2023-02-02T10:38:07.926Z,67
2023-02-02T10:39:25.031Z,66.2
2023-02-02T10:40:42.135Z,66.2
2023-02-02T10:41:59.240Z,69.1
2023-02-02T10:43:16.345Z,67
2023-02-02T10:44:32.466Z,68.1
2023-02-02T10:45:49.571Z,66
2023-02-02T10:47:06.676Z,64.9
2023-02-02T10:48:23.780Z,64.1
2023-02-02T10:49:40.885Z,66
2023-02-02T10:50:57.990Z,64.2
2023-02-02T10:52:15.094Z,69.4
2023-02-02T10:53:32.199Z,70.4
2023-02-02T10:54:48.325Z,69.1
2023-02-02T10:56:04.446Z,64.9
2023-02-02T10:57:20.572Z,71
2023-02-02T10:58:36.693Z,68.9
2023-02-02T10:59:53.798Z,63.3
2023-02-02T11:01:10.903Z,72.6
2023-02-02T11:02:28.008Z,83.1
2023-02-02T11:03:45.113Z,76.5
2023-02-02T11:05:02.217Z,66.7
2023-02-02T11:06:19.322Z,67.8
2023-02-02T11:07:36.427Z,65
2023-02-02T11:08:53.532Z,63.8
2023-02-02T11:10:10.637Z,70.7
2023-02-02T11:11:27.741Z,71.5
2023-02-02T11:12:44.846Z,70.5
2023-02-02T11:14:01.951Z,63.8
2023-02-02T11:15:18.072Z,67.9
2023-02-02T11:16:35.176Z,65.7
2023-02-02T11:17:52.281Z,65.2
2023-02-02T11:19:09.386Z,66.2
2023-02-02T11:20:26.490Z,63.3
2023-02-02T11:21:43.595Z,68.3
2023-02-02T11:23:00.700Z,58.1
2023-02-02T11:24:16.826Z,70
2023-02-02T11:25:32.947Z,62.5
2023-02-02T11:26:50.052Z,66.2
2023-02-02T11:28:06.178Z,67.9
2023-02-02T11:29:22.299Z,70.8
2023-02-02T11:30:39.403Z,67.5
2023-02-02T11:31:56.508Z,63.3
2023-02-02T11:33:13.613Z,66
2023-02-02T11:34:30.717Z,67.5
2023-02-02T11:35:47.822Z,68.8
2023-02-02T11:37:04.927Z,60.7
2023-02-02T11:38:22.032Z,63
2023-02-02T11:39:39.136Z,63.6
2023-02-02T11:40:56.241Z,64.6
2023-02-02T11:42:13.346Z,69.6
2023-02-02T11:43:30.450Z,71.7
2023-02-02T11:44:47.555Z,64.7
2023-02-02T11:46:03.676Z,61.7
2023-02-02T11:47:20.781Z,69.9
2023-02-02T11:48:37.886Z,64.6
2023-02-02T11:49:54.990Z,66.3
2023-02-02T11:51:12.095Z,63.9
2023-02-02T11:52:29.200Z,75.2
2023-02-02T11:53:46.305Z,65.9
2023-02-02T11:55:02.431Z,64.7
2023-02-02T11:56:18.552Z,61.2
2023-02-02T11:57:35.656Z,64.1
2023-02-02T11:58:52.761Z,65
2023-02-02T12:00:08.887Z,81.6
2023-02-02T12:01:25.008Z,67.1
2023-02-02T12:02:42.113Z,67.9
2023-02-02T12:03:59.218Z,68.4
2023-02-02T12:05:16.323Z,67.9
2023-02-02T12:06:33.427Z,67.9
2023-02-02T12:07:50.532Z,66.5
2023-02-02T12:09:07.637Z,65.2
2023-02-02T12:10:24.742Z,63.8
2023-02-02T12:11:41.846Z,65.2
2023-02-02T12:12:58.951Z,72.6
2023-02-02T12:14:16.056Z,75.4
2023-02-02T12:15:33.161Z,64.2
2023-02-02T12:16:50.266Z,65
2023-02-02T12:18:06.386Z,75.2
2023-02-02T12:19:23.491Z,61.3
2023-02-02T12:20:40.596Z,63.1
2023-02-02T12:21:57.701Z,67.1
2023-02-02T12:23:14.805Z,72
2023-02-02T12:24:31.910Z,67.5
2023-02-02T12:25:49.015Z,69.9
2023-02-02T12:27:05.141Z,66.8
2023-02-02T12:28:21.262Z,73.4
2023-02-02T12:29:37.388Z,66.5
2023-02-02T12:30:53.509Z,61.2
2023-02-02T12:32:10.614Z,67.9
2023-02-02T12:33:27.718Z,67.3
2023-02-02T12:34:44.823Z,69.9
2023-02-02T12:36:01.928Z,71.3
2023-02-02T12:37:19.033Z,65.4
2023-02-02T12:38:36.137Z,68.9
2023-02-02T12:39:53.242Z,65.4
2023-02-02T12:41:10.347Z,71.3
2023-02-02T12:42:27.452Z,69.1
2023-02-02T12:43:44.556Z,64.1
2023-02-02T12:45:01.661Z,76
2023-02-02T12:46:18.766Z,62.6
2023-02-02T12:47:34.887Z,70.2
2023-02-02T12:48:51.991Z,64.7
2023-02-02T12:50:09.096Z,68.4
2023-02-02T12:51:26.201Z,63.4
2023-02-02T12:52:43.306Z,70.8
2023-02-02T12:54:00.411Z,67.5
2023-02-02T12:55:17.516Z,71
2023-02-02T12:56:34.621Z,70.4
2023-02-02T12:57:51.725Z,72.6
2023-02-02T12:59:08.830Z,62.3
2023-02-02T13:00:25.935Z,68.9
2023-02-02T13:01:42.061Z,62.6
2023-02-02T13:02:58.182Z,59.6
2023-02-02T13:04:15.287Z,70
2023-02-02T13:05:31.413Z,66.8
2023-02-02T13:06:47.534Z,63.3
2023-02-02T13:08:04.639Z,67.1
2023-02-02T13:09:21.744Z,64.4
2023-02-02T13:10:38.848Z,71.2
2023-02-02T13:11:55.953Z,68.9
2023-02-02T13:13:13.056Z,67
2023-02-02T13:14:30.161Z,69.7
2023-02-02T13:15:47.265Z,69.6
2023-02-02T13:17:04.370Z,68.6
2023-02-02T13:18:21.475Z,65.9
2023-02-02T13:19:38.580Z,64.7
2023-02-02T13:20:55.686Z,71
2023-02-02T13:22:12.791Z,64.4
2023-02-02T13:23:28.912Z,70.4
2023-02-02T13:24:46.016Z,69.7
2023-02-02T13:26:03.121Z,66.3
2023-02-02T13:27:20.226Z,65.7
2023-02-02T13:28:37.331Z,67.1
2023-02-02T13:29:54.436Z,63.6
2023-02-02T13:31:11.540Z,65.4
2023-02-02T13:32:28.645Z,64.6
2023-02-02T13:33:45.750Z,70.8
2023-02-02T13:35:01.876Z,62.3
2023-02-02T13:36:17.997Z,69.2
2023-02-02T13:37:35.102Z,61.7
2023-02-02T13:38:51.228Z,67
2023-02-02T13:40:07.349Z,61.8
2023-02-02T13:41:24.453Z,68.9
2023-02-02T13:42:41.558Z,72.5
2023-02-02T13:43:58.663Z,68.1
2023-02-02T13:45:15.768Z,65.7
2023-02-02T13:46:32.873Z,69.4
2023-02-02T13:47:49.978Z,68.4
2023-02-02T13:49:07.082Z,67.9
2023-02-02T13:50:24.187Z,62.6
2023-02-02T13:51:41.292Z,69.2
2023-02-02T13:52:58.397Z,64.2
2023-02-02T13:54:15.501Z,59.4
2023-02-02T13:55:32.607Z,71
2023-02-02T13:56:49.711Z,67
2023-02-02T13:58:05.832Z,67.1
2023-02-02T13:59:22.937Z,67.5
2023-02-02T14:00:40.042Z,67.6
2023-02-02T14:01:57.146Z,65.9
2023-02-02T14:03:14.251Z,62.1
2023-02-02T14:04:31.356Z,68.3
2023-02-02T14:05:48.461Z,64.4
2023-02-02T14:07:05.566Z,70
2023-02-02T14:08:22.671Z,63.8
2023-02-02T14:09:39.775Z,65.2
2023-02-02T14:10:56.880Z,67.6
2023-02-02T14:12:13.985Z,64.6
2023-02-02T14:13:31.089Z,67
2023-02-02T14:14:47.210Z,65.9
2023-02-02T14:16:04.315Z,70
2023-02-02T14:17:21.420Z,62.1
2023-02-02T14:18:38.525Z,69.4
2023-02-02T14:19:55.630Z,69.2
2023-02-02T14:21:12.732Z,67.1
2023-02-02T14:22:29.837Z,68.6
2023-02-02T14:23:46.942Z,65
2023-02-02T14:25:04.046Z,65.2
2023-02-02T14:26:21.151Z,70.2
2023-02-02T14:27:38.256Z,65.9
2023-02-02T14:28:55.361Z,67.3
2023-02-02T14:30:11.487Z,61.8
2023-02-02T14:31:27.608Z,69.2
2023-02-02T14:32:44.713Z,69.1
2023-02-02T14:34:00.839Z,70.8
2023-02-02T14:35:16.960Z,63.3
2023-02-02T14:36:34.063Z,61.5
2023-02-02T14:37:51.167Z,64.4
2023-02-02T14:39:08.272Z,63.8
2023-02-02T14:40:25.377Z,71.5
2023-02-02T14:41:42.482Z,66.3
2023-02-02T14:42:59.586Z,68.8
2023-02-02T14:44:16.692Z,63.3
2023-02-02T14:45:33.796Z,68.3
2023-02-02T14:46:50.901Z,70.8
2023-02-02T14:48:08.006Z,66.3
2023-02-02T14:49:25.110Z,63.9
2023-02-02T14:50:42.215Z,66.3
2023-02-02T14:51:58.336Z,69.4
2023-02-02T14:53:15.441Z,67.6
2023-02-02T14:54:32.546Z,67.3
2023-02-02T14:55:49.651Z,67.8
2023-02-02T14:57:06.755Z,67.9
2023-02-02T14:58:23.860Z,67.8
2023-02-02T14:59:40.965Z,69.4
2023-02-02T15:00:57.091Z,65.9
2023-02-02T15:02:13.212Z,66.3
2023-02-02T15:03:29.338Z,61.5
2023-02-02T15:04:45.459Z,65.9
2023-02-02T15:06:02.564Z,66.3
2023-02-02T15:07:19.668Z,68.1
2023-02-02T15:08:36.773Z,68.9
2023-02-02T15:09:53.879Z,66
2023-02-02T15:11:10.984Z,63.9
2023-02-02T15:12:28.089Z,68.8
2023-02-02T15:13:45.194Z,69.2
2023-02-02T15:15:02.298Z,68.9
2023-02-02T15:16:19.403Z,64.2
2023-02-02T15:17:36.508Z,66.7
2023-02-02T15:18:53.612Z,71
2023-02-02T15:20:10.717Z,64.4
2023-02-02T15:21:26.838Z,68.4
2023-02-02T15:22:43.943Z,88.3
2023-02-02T15:24:01.048Z,66
2023-02-02T15:25:18.153Z,60.1
2023-02-02T15:26:35.258Z,68.3
2023-02-02T15:27:52.362Z,68.3
2023-02-02T15:29:09.467Z,67
2023-02-02T15:30:25.593Z,68.4
2023-02-02T15:31:41.714Z,64.9
2023-02-02T15:32:58.819Z,66.7
2023-02-02T15:34:15.924Z,65.7
2023-02-02T15:35:32.050Z,59.7
2023-02-02T15:36:48.171Z,65.9
2023-02-02T15:38:05.276Z,67.3
2023-02-02T15:39:22.381Z,61.7
2023-02-02T15:40:39.485Z,66
2023-02-02T15:41:56.590Z,68.6
2023-02-02T15:43:13.695Z,70.4
2023-02-02T15:44:30.800Z,62
2023-02-02T15:45:47.904Z,64.2
2023-02-02T15:47:05.009Z,66.3
2023-02-02T15:48:22.114Z,67.3
2023-02-02T15:49:39.219Z,67
2023-02-02T15:50:56.324Z,62.3
2023-02-02T15:52:13.428Z,61.2
2023-02-02T15:53:29.549Z,70
2023-02-02T15:54:46.654Z,67.9
2023-02-02T15:56:03.759Z,65.5
2023-02-02T15:57:20.864Z,64.2
2023-02-02T15:58:37.968Z,65.5
2023-02-02T15:59:55.074Z,70
2023-02-02T16:01:12.178Z,67.5
2023-02-02T16:02:28.304Z,65.5
2023-02-02T16:03:44.425Z,69.4
2023-02-02T16:05:00.552Z,65.5
2023-02-02T16:06:16.672Z,69.1
2023-02-02T16:07:33.777Z,67
2023-02-02T16:08:50.882Z,68.6
2023-02-02T16:10:07.987Z,67.6
2023-02-02T16:11:25.092Z,65
2023-02-02T16:12:42.196Z,67
2023-02-02T16:13:59.301Z,67.6
2023-02-02T16:15:16.406Z,69.7
2023-02-02T16:16:33.511Z,69.4
2023-02-02T16:17:50.616Z,68.3
2023-02-02T16:19:07.720Z,66.2
2023-02-02T16:20:24.825Z,68.4
2023-02-02T16:21:41.930Z,70.4
2023-02-02T16:22:58.051Z,65.5
2023-02-02T16:24:15.156Z,69.7
2023-02-02T16:25:32.260Z,66
2023-02-02T16:26:49.366Z,68.8
2023-02-02T16:28:06.470Z,69.6
2023-02-02T16:29:23.575Z,67.8
2023-02-02T16:30:40.680Z,69.4
2023-02-02T16:31:56.806Z,65.9
2023-02-02T16:33:12.927Z,64.2
2023-02-02T16:34:30.032Z,64.2
2023-02-02T16:35:46.158Z,68.8
2023-02-02T16:37:02.279Z,68.4
2023-02-02T16:38:19.384Z,65.7
2023-02-02T16:39:36.488Z,67.9
2023-02-02T16:40:53.593Z,69.9
2023-02-02T16:42:10.698Z,67.9
2023-02-02T16:43:27.803Z,66.5
2023-02-02T16:44:44.908Z,68.9
2023-02-02T16:46:02.013Z,67.9
2023-02-02T16:47:19.118Z,63.4
2023-02-02T16:48:36.222Z,65.4
2023-02-02T16:49:53.327Z,64.6
2023-02-02T16:51:10.432Z,66.5
2023-02-02T16:52:27.537Z,66.3
2023-02-02T16:53:43.658Z,66
2023-02-02T16:55:00.763Z,66.5
2023-02-02T16:56:17.868Z,67.5
2023-02-02T16:57:34.972Z,68.6
2023-02-02T16:58:52.077Z,64.4
2023-02-02T17:00:09.182Z,76.3
2023-02-02T17:01:26.287Z,67.5
2023-02-02T17:02:42.413Z,74.9
2023-02-02T17:03:58.534Z,63.8
2023-02-02T17:06:32.744Z,61.8
2023-02-02T17:07:49.849Z,64.1
2023-02-02T17:09:05.975Z,65.7
2023-02-02T17:10:22.096Z,69.7
2023-02-02T17:11:39.200Z,70.8
2023-02-02T17:12:56.305Z,66.5
2023-02-02T17:14:13.410Z,67.5
2023-02-02T17:15:30.515Z,68.6